sensor_id;sensor_type;location;lat;lon;timestamp;temperature;humidity
70801;DHT22;59616;52.170;5.386;2022-07-22T00:01:49;17.80;78.00
70801;DHT22;59616;52.170;5.386;2022-07-22T00:04:16;17.80;77.90
70801;DHT22;59616;52.170;5.386;2022-07-22T00:06:43;17.90;78.00
70801;DHT22;59616;52.170;5.386;2022-07-22T00:09:10;17.80;78.00
70801;DHT22;59616;52.170;5.386;2022-07-22T00:11:37;17.80;78.00
70801;DHT22;59616;52.170;5.386;2022-07-22T00:14:04;17.90;77.90
70801;DHT22;59616;52.170;5.386;2022-07-22T00:16:30;17.80;77.80
70801;DHT22;59616;52.170;5.386;2022-07-22T00:18:57;17.90;77.70
70801;DHT22;59616;52.170;5.386;2022-07-22T00:21:25;17.80;77.60
70801;DHT22;59616;52.170;5.386;2022-07-22T00:23:51;17.90;77.50
70801;DHT22;59616;52.170;5.386;2022-07-22T00:26:18;17.90;77.40
70801;DHT22;59616;52.170;5.386;2022-07-22T00:28:45;17.90;77.40
70801;DHT22;59616;52.170;5.386;2022-07-22T00:31:11;17.90;77.30
70801;DHT22;59616;52.170;5.386;2022-07-22T00:33:38;17.90;77.30
70801;DHT22;59616;52.170;5.386;2022-07-22T00:36:07;17.90;77.30
70801;DHT22;59616;52.170;5.386;2022-07-22T00:38:34;17.90;77.30
70801;DHT22;59616;52.170;5.386;2022-07-22T00:41:01;17.80;77.20
70801;DHT22;59616;52.170;5.386;2022-07-22T00:43:27;17.80;77.10
70801;DHT22;59616;52.170;5.386;2022-07-22T00:45:54;17.80;77.00
70801;DHT22;59616;52.170;5.386;2022-07-22T00:48:22;17.80;77.00
70801;DHT22;59616;52.170;5.386;2022-07-22T00:50:48;17.80;77.00
70801;DHT22;59616;52.170;5.386;2022-07-22T00:53:15;17.80;76.80
70801;DHT22;59616;52.170;5.386;2022-07-22T00:55:42;17.80;76.50
70801;DHT22;59616;52.170;5.386;2022-07-22T00:58:09;17.80;76.40
70801;DHT22;59616;52.170;5.386;2022-07-22T01:00:36;17.80;76.20
70801;DHT22;59616;52.170;5.386;2022-07-22T01:03:03;17.80;76.00
70801;DHT22;59616;52.170;5.386;2022-07-22T01:05:30;17.80;76.00
70801;DHT22;59616;52.170;5.386;2022-07-22T01:07:56;17.80;76.10
70801;DHT22;59616;52.170;5.386;2022-07-22T01:10:24;17.80;76.10
70801;DHT22;59616;52.170;5.386;2022-07-22T01:12:51;17.90;76.10
70801;DHT22;59616;52.170;5.386;2022-07-22T01:15:18;17.90;76.20
70801;DHT22;59616;52.170;5.386;2022-07-22T01:17:44;17.90;76.30
70801;DHT22;59616;52.170;5.386;2022-07-22T01:20:11;17.90;76.20
70801;DHT22;59616;52.170;5.386;2022-07-22T01:22:39;17.90;76.20
70801;DHT22;59616;52.170;5.386;2022-07-22T01:25:06;17.90;76.50
70801;DHT22;59616;52.170;5.386;2022-07-22T01:27:33;17.90;76.30
70801;DHT22;59616;52.170;5.386;2022-07-22T01:30:00;17.90;76.20
70801;DHT22;59616;52.170;5.386;2022-07-22T01:32:28;17.90;76.20
70801;DHT22;59616;52.170;5.386;2022-07-22T01:34:54;17.90;76.20
70801;DHT22;59616;52.170;5.386;2022-07-22T01:37:21;17.90;76.20
70801;DHT22;59616;52.170;5.386;2022-07-22T01:39:49;17.90;76.30
70801;DHT22;59616;52.170;5.386;2022-07-22T01:42:16;17.90;76.40
70801;DHT22;59616;52.170;5.386;2022-07-22T01:44:43;17.90;76.50
70801;DHT22;59616;52.170;5.386;2022-07-22T01:47:10;17.90;76.60
70801;DHT22;59616;52.170;5.386;2022-07-22T01:49:37;17.90;76.70
70801;DHT22;59616;52.170;5.386;2022-07-22T01:52:04;17.80;76.70
70801;DHT22;59616;52.170;5.386;2022-07-22T01:54:33;17.90;76.70
70801;DHT22;59616;52.170;5.386;2022-07-22T01:57:00;17.90;76.60
70801;DHT22;59616;52.170;5.386;2022-07-22T01:59:26;17.90;76.50
70801;DHT22;59616;52.170;5.386;2022-07-22T02:01:54;17.80;76.50
70801;DHT22;59616;52.170;5.386;2022-07-22T02:04:23;17.80;76.60
70801;DHT22;59616;52.170;5.386;2022-07-22T02:06:53;17.80;76.80
70801;DHT22;59616;52.170;5.386;2022-07-22T02:09:20;17.80;76.80
70801;DHT22;59616;52.170;5.386;2022-07-22T02:11:51;17.90;77.00
70801;DHT22;59616;52.170;5.386;2022-07-22T02:14:18;17.90;77.00
70801;DHT22;59616;52.170;5.386;2022-07-22T02:16:48;17.90;77.10
70801;DHT22;59616;52.170;5.386;2022-07-22T02:19:14;17.90;77.10
70801;DHT22;59616;52.170;5.386;2022-07-22T02:21:41;17.80;76.90
70801;DHT22;59616;52.170;5.386;2022-07-22T02:24:08;17.80;77.00
70801;DHT22;59616;52.170;5.386;2022-07-22T02:26:35;17.90;77.10
70801;DHT22;59616;52.170;5.386;2022-07-22T02:29:02;17.90;77.20
70801;DHT22;59616;52.170;5.386;2022-07-22T02:31:29;17.90;77.10
70801;DHT22;59616;52.170;5.386;2022-07-22T02:33:56;17.90;77.30
70801;DHT22;59616;52.170;5.386;2022-07-22T02:36:26;17.90;77.30
70801;DHT22;59616;52.170;5.386;2022-07-22T02:38:53;17.90;77.20
70801;DHT22;59616;52.170;5.386;2022-07-22T02:41:21;17.90;77.20
70801;DHT22;59616;52.170;5.386;2022-07-22T02:43:52;17.90;77.00
70801;DHT22;59616;52.170;5.386;2022-07-22T02:46:22;17.90;77.10
70801;DHT22;59616;52.170;5.386;2022-07-22T02:48:49;17.90;77.10
70801;DHT22;59616;52.170;5.386;2022-07-22T02:51:18;17.90;77.20
70801;DHT22;59616;52.170;5.386;2022-07-22T02:53:44;17.90;77.30
70801;DHT22;59616;52.170;5.386;2022-07-22T02:56:11;17.90;77.30
70801;DHT22;59616;52.170;5.386;2022-07-22T02:58:40;17.90;77.30
70801;DHT22;59616;52.170;5.386;2022-07-22T03:01:07;17.90;77.00
70801;DHT22;59616;52.170;5.386;2022-07-22T03:03:43;17.90;77.00
70801;DHT22;59616;52.170;5.386;2022-07-22T03:06:10;17.90;76.90
70801;DHT22;59616;52.170;5.386;2022-07-22T03:08:45;17.90;76.90
70801;DHT22;59616;52.170;5.386;2022-07-22T03:11:13;17.90;77.00
70801;DHT22;59616;52.170;5.386;2022-07-22T03:13:40;17.80;77.00
70801;DHT22;59616;52.170;5.386;2022-07-22T03:16:08;17.80;77.00
70801;DHT22;59616;52.170;5.386;2022-07-22T03:18:36;17.80;77.00
70801;DHT22;59616;52.170;5.386;2022-07-22T03:21:03;17.90;77.10
70801;DHT22;59616;52.170;5.386;2022-07-22T03:23:30;17.90;76.80
70801;DHT22;59616;52.170;5.386;2022-07-22T03:25:58;17.80;76.70
70801;DHT22;59616;52.170;5.386;2022-07-22T03:28:24;17.80;76.80
70801;DHT22;59616;52.170;5.386;2022-07-22T03:30:52;17.80;76.90
70801;DHT22;59616;52.170;5.386;2022-07-22T03:33:18;17.80;76.90
70801;DHT22;59616;52.170;5.386;2022-07-22T03:35:45;17.80;76.80
70801;DHT22;59616;52.170;5.386;2022-07-22T03:38:13;17.90;76.90
70801;DHT22;59616;52.170;5.386;2022-07-22T03:40:40;17.80;76.70
70801;DHT22;59616;52.170;5.386;2022-07-22T03:43:07;17.80;76.50
70801;DHT22;59616;52.170;5.386;2022-07-22T03:45:34;17.80;76.60
70801;DHT22;59616;52.170;5.386;2022-07-22T03:48:00;17.80;76.50
70801;DHT22;59616;52.170;5.386;2022-07-22T03:50:33;17.80;76.50
70801;DHT22;59616;52.170;5.386;2022-07-22T03:53:00;17.80;76.50
70801;DHT22;59616;52.170;5.386;2022-07-22T03:55:27;17.80;76.40
70801;DHT22;59616;52.170;5.386;2022-07-22T03:57:56;17.80;76.50
70801;DHT22;59616;52.170;5.386;2022-07-22T04:00:26;17.80;76.70
70801;DHT22;59616;52.170;5.386;2022-07-22T04:02:54;17.90;76.50
70801;DHT22;59616;52.170;5.386;2022-07-22T04:05:39;17.90;76.50
70801;DHT22;59616;52.170;5.386;2022-07-22T04:08:07;17.90;76.40
70801;DHT22;59616;52.170;5.386;2022-07-22T04:10:34;17.90;76.20
70801;DHT22;59616;52.170;5.386;2022-07-22T04:13:01;17.90;76.10
70801;DHT22;59616;52.170;5.386;2022-07-22T04:15:48;17.90;76.00
70801;DHT22;59616;52.170;5.386;2022-07-22T04:18:15;17.90;75.80
70801;DHT22;59616;52.170;5.386;2022-07-22T04:20:44;17.90;75.60
70801;DHT22;59616;52.170;5.386;2022-07-22T04:23:27;17.90;75.50
70801;DHT22;59616;52.170;5.386;2022-07-22T04:26:03;17.90;75.40
70801;DHT22;59616;52.170;5.386;2022-07-22T04:28:33;18.00;75.30
70801;DHT22;59616;52.170;5.386;2022-07-22T04:31:04;18.00;75.30
70801;DHT22;59616;52.170;5.386;2022-07-22T04:33:31;18.00;75.40
70801;DHT22;59616;52.170;5.386;2022-07-22T04:35:59;18.00;75.20
70801;DHT22;59616;52.170;5.386;2022-07-22T04:38:26;18.10;75.20
70801;DHT22;59616;52.170;5.386;2022-07-22T04:40:58;18.10;75.10
70801;DHT22;59616;52.170;5.386;2022-07-22T04:43:24;18.10;75.00
70801;DHT22;59616;52.170;5.386;2022-07-22T04:45:51;18.10;74.90
70801;DHT22;59616;52.170;5.386;2022-07-22T04:48:19;18.20;75.80
70801;DHT22;59616;52.170;5.386;2022-07-22T04:50:47;18.20;74.60
70801;DHT22;59616;52.170;5.386;2022-07-22T04:53:13;18.20;74.50
70801;DHT22;59616;52.170;5.386;2022-07-22T04:55:40;18.30;74.40
70801;DHT22;59616;52.170;5.386;2022-07-22T04:58:08;18.30;74.30
70801;DHT22;59616;52.170;5.386;2022-07-22T05:00:44;18.30;74.30
70801;DHT22;59616;52.170;5.386;2022-07-22T05:03:10;18.40;74.20
70801;DHT22;59616;52.170;5.386;2022-07-22T05:05:37;18.40;74.00
70801;DHT22;59616;52.170;5.386;2022-07-22T05:08:05;18.40;74.80
70801;DHT22;59616;52.170;5.386;2022-07-22T05:10:33;18.50;74.00
70801;DHT22;59616;52.170;5.386;2022-07-22T05:13:01;18.50;73.70
70801;DHT22;59616;52.170;5.386;2022-07-22T05:15:28;18.50;73.50
70801;DHT22;59616;52.170;5.386;2022-07-22T05:17:54;18.60;73.20
70801;DHT22;59616;52.170;5.386;2022-07-22T05:20:25;18.60;72.90
70801;DHT22;59616;52.170;5.386;2022-07-22T05:22:52;18.60;72.60
70801;DHT22;59616;52.170;5.386;2022-07-22T05:25:22;18.70;72.50
70801;DHT22;59616;52.170;5.386;2022-07-22T05:27:54;18.70;72.50
70801;DHT22;59616;52.170;5.386;2022-07-22T05:30:26;18.70;72.20
70801;DHT22;59616;52.170;5.386;2022-07-22T05:32:54;18.70;72.10
70801;DHT22;59616;52.170;5.386;2022-07-22T05:35:41;18.70;71.90
70801;DHT22;59616;52.170;5.386;2022-07-22T05:38:08;18.70;71.90
70801;DHT22;59616;52.170;5.386;2022-07-22T05:40:35;18.70;71.80
70801;DHT22;59616;52.170;5.386;2022-07-22T05:43:02;18.70;71.60
70801;DHT22;59616;52.170;5.386;2022-07-22T05:45:29;18.80;71.70
70801;DHT22;59616;52.170;5.386;2022-07-22T05:47:56;18.80;71.90
70801;DHT22;59616;52.170;5.386;2022-07-22T05:50:23;18.90;71.80
70801;DHT22;59616;52.170;5.386;2022-07-22T05:52:50;18.90;71.60
70801;DHT22;59616;52.170;5.386;2022-07-22T05:55:17;19.00;72.40
70801;DHT22;59616;52.170;5.386;2022-07-22T05:57:46;19.10;71.20
70801;DHT22;59616;52.170;5.386;2022-07-22T06:00:13;19.10;70.90
70801;DHT22;59616;52.170;5.386;2022-07-22T06:02:40;19.10;70.90
70801;DHT22;59616;52.170;5.386;2022-07-22T06:05:11;19.10;71.00
70801;DHT22;59616;52.170;5.386;2022-07-22T06:07:58;19.20;70.50
70801;DHT22;59616;52.170;5.386;2022-07-22T06:10:34;19.20;70.20
70801;DHT22;59616;52.170;5.386;2022-07-22T06:13:00;19.20;69.60
70801;DHT22;59616;52.170;5.386;2022-07-22T06:15:27;19.20;69.70
70801;DHT22;59616;52.170;5.386;2022-07-22T06:17:55;19.20;69.60
70801;DHT22;59616;52.170;5.386;2022-07-22T06:20:22;19.20;69.20
70801;DHT22;59616;52.170;5.386;2022-07-22T06:22:48;19.20;69.10
70801;DHT22;59616;52.170;5.386;2022-07-22T06:25:15;19.20;69.10
70801;DHT22;59616;52.170;5.386;2022-07-22T06:28:02;19.20;69.40
70801;DHT22;59616;52.170;5.386;2022-07-22T06:30:29;19.20;69.70
70801;DHT22;59616;52.170;5.386;2022-07-22T06:32:59;19.30;69.80
70801;DHT22;59616;52.170;5.386;2022-07-22T06:35:26;19.40;69.50
70801;DHT22;59616;52.170;5.386;2022-07-22T06:37:53;19.40;69.10
70801;DHT22;59616;52.170;5.386;2022-07-22T06:41:03;19.40;69.00
70801;DHT22;59616;52.170;5.386;2022-07-22T06:43:43;19.40;69.10
70801;DHT22;59616;52.170;5.386;2022-07-22T06:46:31;19.50;69.40
70801;DHT22;59616;52.170;5.386;2022-07-22T06:48:59;19.60;68.90
70801;DHT22;59616;52.170;5.386;2022-07-22T06:51:28;19.60;68.50
70801;DHT22;59616;52.170;5.386;2022-07-22T06:53:55;19.60;68.20
70801;DHT22;59616;52.170;5.386;2022-07-22T06:56:22;19.70;67.80
70801;DHT22;59616;52.170;5.386;2022-07-22T06:58:49;19.80;67.70
70801;DHT22;59616;52.170;5.386;2022-07-22T07:01:17;19.80;67.60
70801;DHT22;59616;52.170;5.386;2022-07-22T07:03:55;19.90;67.50
70801;DHT22;59616;52.170;5.386;2022-07-22T07:06:22;19.90;67.30
70801;DHT22;59616;52.170;5.386;2022-07-22T07:08:58;20.00;66.90
70801;DHT22;59616;52.170;5.386;2022-07-22T07:11:26;20.00;66.40
70801;DHT22;59616;52.170;5.386;2022-07-22T07:13:54;20.00;65.90
70801;DHT22;59616;52.170;5.386;2022-07-22T07:16:21;20.10;66.00
70801;DHT22;59616;52.170;5.386;2022-07-22T07:18:48;20.20;65.70
70801;DHT22;59616;52.170;5.386;2022-07-22T07:21:15;20.20;65.70
70801;DHT22;59616;52.170;5.386;2022-07-22T07:23:42;20.20;65.40
70801;DHT22;59616;52.170;5.386;2022-07-22T07:26:08;20.20;65.30
70801;DHT22;59616;52.170;5.386;2022-07-22T07:28:36;20.20;65.00
70801;DHT22;59616;52.170;5.386;2022-07-22T07:31:15;20.20;65.20
70801;DHT22;59616;52.170;5.386;2022-07-22T07:33:42;20.30;65.00
70801;DHT22;59616;52.170;5.386;2022-07-22T07:36:10;20.30;64.80
70801;DHT22;59616;52.170;5.386;2022-07-22T07:38:42;20.40;65.70
70801;DHT22;59616;52.170;5.386;2022-07-22T07:41:13;20.40;64.40
70801;DHT22;59616;52.170;5.386;2022-07-22T07:43:41;20.40;64.10
70801;DHT22;59616;52.170;5.386;2022-07-22T07:46:08;20.40;64.00
70801;DHT22;59616;52.170;5.386;2022-07-22T07:48:35;20.40;63.80
70801;DHT22;59616;52.170;5.386;2022-07-22T07:51:06;20.50;64.00
70801;DHT22;59616;52.170;5.386;2022-07-22T07:53:34;20.50;64.10
70801;DHT22;59616;52.170;5.386;2022-07-22T07:56:01;20.50;63.80
70801;DHT22;59616;52.170;5.386;2022-07-22T07:58:29;20.50;63.40
70801;DHT22;59616;52.170;5.386;2022-07-22T08:01:04;20.50;63.40
70801;DHT22;59616;52.170;5.386;2022-07-22T08:03:31;20.50;63.50
70801;DHT22;59616;52.170;5.386;2022-07-22T08:05:58;20.50;63.40
70801;DHT22;59616;52.170;5.386;2022-07-22T08:08:28;20.50;63.20
70801;DHT22;59616;52.170;5.386;2022-07-22T08:10:56;20.40;62.90
70801;DHT22;59616;52.170;5.386;2022-07-22T08:13:47;20.50;62.80
70801;DHT22;59616;52.170;5.386;2022-07-22T08:16:34;20.50;62.90
70801;DHT22;59616;52.170;5.386;2022-07-22T08:19:03;20.60;62.80
70801;DHT22;59616;52.170;5.386;2022-07-22T08:21:31;20.90;62.60
70801;DHT22;59616;52.170;5.386;2022-07-22T08:23:59;21.10;61.90
70801;DHT22;59616;52.170;5.386;2022-07-22T08:26:27;21.30;61.20
70801;DHT22;59616;52.170;5.386;2022-07-22T08:28:59;21.60;60.70
70801;DHT22;59616;52.170;5.386;2022-07-22T08:31:28;21.80;60.00
70801;DHT22;59616;52.170;5.386;2022-07-22T08:33:56;21.90;59.60
70801;DHT22;59616;52.170;5.386;2022-07-22T08:36:27;21.90;59.50
70801;DHT22;59616;52.170;5.386;2022-07-22T08:38:53;21.90;59.30
70801;DHT22;59616;52.170;5.386;2022-07-22T08:41:22;22.00;59.30
70801;DHT22;59616;52.170;5.386;2022-07-22T08:43:50;21.90;59.20
70801;DHT22;59616;52.170;5.386;2022-07-22T08:46:17;21.90;59.30
70801;DHT22;59616;52.170;5.386;2022-07-22T08:49:03;21.80;59.20
70801;DHT22;59616;52.170;5.386;2022-07-22T08:52:02;21.70;59.20
70801;DHT22;59616;52.170;5.386;2022-07-22T08:54:35;21.60;59.30
70801;DHT22;59616;52.170;5.386;2022-07-22T08:57:03;21.50;59.10
70801;DHT22;59616;52.170;5.386;2022-07-22T08:59:30;21.60;58.20
70801;DHT22;59616;52.170;5.386;2022-07-22T09:02:05;21.60;58.00
70801;DHT22;59616;52.170;5.386;2022-07-22T09:04:58;21.60;57.80
70801;DHT22;59616;52.170;5.386;2022-07-22T09:07:43;21.70;57.90
70801;DHT22;59616;52.170;5.386;2022-07-22T09:10:22;21.80;57.00
70801;DHT22;59616;52.170;5.386;2022-07-22T09:13:08;21.80;57.00
70801;DHT22;59616;52.170;5.386;2022-07-22T09:15:54;21.90;56.70
70801;DHT22;59616;52.170;5.386;2022-07-22T09:18:45;22.20;56.50
70801;DHT22;59616;52.170;5.386;2022-07-22T09:21:31;22.50;56.20
70801;DHT22;59616;52.170;5.386;2022-07-22T09:24:32;22.70;55.50
70801;DHT22;59616;52.170;5.386;2022-07-22T09:27:10;22.90;54.60
70801;DHT22;59616;52.170;5.386;2022-07-22T09:29:49;23.00;54.90
70801;DHT22;59616;52.170;5.386;2022-07-22T09:32:18;23.20;54.20
70801;DHT22;59616;52.170;5.386;2022-07-22T09:35:02;23.40;53.90
70801;DHT22;59616;52.170;5.386;2022-07-22T09:37:34;23.30;53.20
70801;DHT22;59616;52.170;5.386;2022-07-22T09:40:15;23.10;53.80
70801;DHT22;59616;52.170;5.386;2022-07-22T09:42:51;23.00;53.40
70801;DHT22;59616;52.170;5.386;2022-07-22T09:45:19;22.90;53.60
70801;DHT22;59616;52.170;5.386;2022-07-22T09:47:48;22.90;53.60
70801;DHT22;59616;52.170;5.386;2022-07-22T09:50:34;22.80;53.40
70801;DHT22;59616;52.170;5.386;2022-07-22T09:53:24;22.80;54.30
70801;DHT22;59616;52.170;5.386;2022-07-22T09:56:03;22.90;54.20
70801;DHT22;59616;52.170;5.386;2022-07-22T09:58:32;22.90;53.90
70801;DHT22;59616;52.170;5.386;2022-07-22T10:01:04;22.70;53.30
70801;DHT22;59616;52.170;5.386;2022-07-22T10:03:35;22.70;53.30
70801;DHT22;59616;52.170;5.386;2022-07-22T10:06:05;22.70;53.20
70801;DHT22;59616;52.170;5.386;2022-07-22T10:08:33;22.90;53.20
70801;DHT22;59616;52.170;5.386;2022-07-22T10:11:03;23.00;53.20
70801;DHT22;59616;52.170;5.386;2022-07-22T10:13:31;22.80;52.70
70801;DHT22;59616;52.170;5.386;2022-07-22T10:15:59;22.80;53.60
70801;DHT22;59616;52.170;5.386;2022-07-22T10:18:27;22.90;53.50
70801;DHT22;59616;52.170;5.386;2022-07-22T10:21:04;22.90;53.70
70801;DHT22;59616;52.170;5.386;2022-07-22T10:23:31;22.80;53.40
70801;DHT22;59616;52.170;5.386;2022-07-22T10:26:00;22.90;53.50
70801;DHT22;59616;52.170;5.386;2022-07-22T10:28:34;22.90;53.30
70801;DHT22;59616;52.170;5.386;2022-07-22T10:31:23;22.90;52.80
70801;DHT22;59616;52.170;5.386;2022-07-22T10:33:55;23.00;52.70
70801;DHT22;59616;52.170;5.386;2022-07-22T10:36:37;23.10;53.30
70801;DHT22;59616;52.170;5.386;2022-07-22T10:39:12;23.30;52.70
70801;DHT22;59616;52.170;5.386;2022-07-22T10:41:44;23.50;52.20
70801;DHT22;59616;52.170;5.386;2022-07-22T10:44:47;23.60;52.20
70801;DHT22;59616;52.170;5.386;2022-07-22T10:47:56;23.70;52.00
70801;DHT22;59616;52.170;5.386;2022-07-22T10:53:07;23.70;51.70
70801;DHT22;59616;52.170;5.386;2022-07-22T10:55:36;23.80;50.90
70801;DHT22;59616;52.170;5.386;2022-07-22T11:03:31;23.50;51.10
70801;DHT22;59616;52.170;5.386;2022-07-22T11:06:16;23.50;51.30
70801;DHT22;59616;52.170;5.386;2022-07-22T11:08:45;23.60;51.70
70801;DHT22;59616;52.170;5.386;2022-07-22T11:11:13;23.60;51.00
70801;DHT22;59616;52.170;5.386;2022-07-22T11:13:42;23.60;51.90
70801;DHT22;59616;52.170;5.386;2022-07-22T11:16:19;23.60;51.30
70801;DHT22;59616;52.170;5.386;2022-07-22T11:18:59;23.80;51.20
70801;DHT22;59616;52.170;5.386;2022-07-22T11:21:29;23.80;50.50
70801;DHT22;59616;52.170;5.386;2022-07-22T11:24:01;23.90;50.90
70801;DHT22;59616;52.170;5.386;2022-07-22T11:26:41;23.80;50.70
70801;DHT22;59616;52.170;5.386;2022-07-22T11:29:09;23.90;51.30
70801;DHT22;59616;52.170;5.386;2022-07-22T11:31:37;24.00;50.20
70801;DHT22;59616;52.170;5.386;2022-07-22T11:34:12;24.00;50.00
70801;DHT22;59616;52.170;5.386;2022-07-22T11:36:42;24.10;49.90
70801;DHT22;59616;52.170;5.386;2022-07-22T11:39:13;24.30;50.20
70801;DHT22;59616;52.170;5.386;2022-07-22T11:41:40;24.40;48.50
70801;DHT22;59616;52.170;5.386;2022-07-22T11:44:08;24.50;49.20
70801;DHT22;59616;52.170;5.386;2022-07-22T11:46:42;24.60;49.00
70801;DHT22;59616;52.170;5.386;2022-07-22T11:49:12;24.70;48.90
70801;DHT22;59616;52.170;5.386;2022-07-22T11:51:39;24.80;49.40
70801;DHT22;59616;52.170;5.386;2022-07-22T11:54:07;24.80;48.20
70801;DHT22;59616;52.170;5.386;2022-07-22T11:56:34;24.80;47.90
70801;DHT22;59616;52.170;5.386;2022-07-22T11:59:01;24.80;47.50
70801;DHT22;59616;52.170;5.386;2022-07-22T12:01:33;24.60;47.70
70801;DHT22;59616;52.170;5.386;2022-07-22T12:04:03;24.70;48.00
70801;DHT22;59616;52.170;5.386;2022-07-22T12:06:32;24.80;47.80
70801;DHT22;59616;52.170;5.386;2022-07-22T12:09:12;24.90;47.00
70801;DHT22;59616;52.170;5.386;2022-07-22T12:11:42;24.80;47.50
70801;DHT22;59616;52.170;5.386;2022-07-22T12:16:44;24.60;46.80
70801;DHT22;59616;52.170;5.386;2022-07-22T12:19:12;24.40;47.60
70801;DHT22;59616;52.170;5.386;2022-07-22T12:21:52;24.40;48.00
70801;DHT22;59616;52.170;5.386;2022-07-22T12:27:23;24.20;48.10
70801;DHT22;59616;52.170;5.386;2022-07-22T12:29:49;24.10;48.60
70801;DHT22;59616;52.170;5.386;2022-07-22T12:37:27;24.50;47.40
70801;DHT22;59616;52.170;5.386;2022-07-22T12:42:37;24.60;46.80
70801;DHT22;59616;52.170;5.386;2022-07-22T12:45:05;24.60;48.50
70801;DHT22;59616;52.170;5.386;2022-07-22T12:47:47;24.80;47.10
70801;DHT22;59616;52.170;5.386;2022-07-22T12:50:29;25.00;47.00
70801;DHT22;59616;52.170;5.386;2022-07-22T12:53:07;25.10;46.50
70801;DHT22;59616;52.170;5.386;2022-07-22T12:55:54;25.10;46.60
70801;DHT22;59616;52.170;5.386;2022-07-22T12:58:24;25.10;46.40
70801;DHT22;59616;52.170;5.386;2022-07-22T13:00:54;25.20;45.90
70801;DHT22;59616;52.170;5.386;2022-07-22T13:03:22;25.10;45.50
70801;DHT22;59616;52.170;5.386;2022-07-22T13:05:57;25.20;45.70
70801;DHT22;59616;52.170;5.386;2022-07-22T13:08:25;25.30;45.90
70801;DHT22;59616;52.170;5.386;2022-07-22T13:11:06;25.10;46.00
70801;DHT22;59616;52.170;5.386;2022-07-22T13:13:33;25.20;46.20
70801;DHT22;59616;52.170;5.386;2022-07-22T13:15:59;25.20;46.20
70801;DHT22;59616;52.170;5.386;2022-07-22T13:18:26;25.10;47.70
70801;DHT22;59616;52.170;5.386;2022-07-22T13:20:53;25.00;46.40
70801;DHT22;59616;52.170;5.386;2022-07-22T13:23:20;24.80;46.40
70801;DHT22;59616;52.170;5.386;2022-07-22T13:25:47;24.80;47.20
70801;DHT22;59616;52.170;5.386;2022-07-22T13:28:20;24.90;47.10
70801;DHT22;59616;52.170;5.386;2022-07-22T13:30:47;25.10;46.40
70801;DHT22;59616;52.170;5.386;2022-07-22T13:33:14;25.20;45.70
70801;DHT22;59616;52.170;5.386;2022-07-22T13:35:43;25.20;45.70
70801;DHT22;59616;52.170;5.386;2022-07-22T13:38:09;25.30;45.90
70801;DHT22;59616;52.170;5.386;2022-07-22T13:40:42;25.50;45.90
70801;DHT22;59616;52.170;5.386;2022-07-22T13:43:20;25.60;45.70
70801;DHT22;59616;52.170;5.386;2022-07-22T13:45:47;25.50;44.80
70801;DHT22;59616;52.170;5.386;2022-07-22T13:48:14;25.30;45.10
70801;DHT22;59616;52.170;5.386;2022-07-22T13:50:41;25.00;45.70
70801;DHT22;59616;52.170;5.386;2022-07-22T13:53:08;24.90;46.00
70801;DHT22;59616;52.170;5.386;2022-07-22T13:55:37;24.80;46.10
70801;DHT22;59616;52.170;5.386;2022-07-22T13:58:04;24.80;46.10
70801;DHT22;59616;52.170;5.386;2022-07-22T14:00:32;24.70;46.70
70801;DHT22;59616;52.170;5.386;2022-07-22T14:03:00;24.60;46.40
70801;DHT22;59616;52.170;5.386;2022-07-22T14:05:26;24.60;46.50
70801;DHT22;59616;52.170;5.386;2022-07-22T14:07:53;24.70;46.60
70801;DHT22;59616;52.170;5.386;2022-07-22T14:10:20;24.70;46.40
70801;DHT22;59616;52.170;5.386;2022-07-22T14:12:47;24.80;46.70
70801;DHT22;59616;52.170;5.386;2022-07-22T14:15:13;24.80;46.50
70801;DHT22;59616;52.170;5.386;2022-07-22T14:17:41;24.90;46.60
70801;DHT22;59616;52.170;5.386;2022-07-22T14:20:09;25.00;46.40
70801;DHT22;59616;52.170;5.386;2022-07-22T14:22:36;24.90;46.40
70801;DHT22;59616;52.170;5.386;2022-07-22T14:25:03;24.90;46.50
70801;DHT22;59616;52.170;5.386;2022-07-22T14:27:30;24.90;46.40
70801;DHT22;59616;52.170;5.386;2022-07-22T14:29:57;25.00;46.70
70801;DHT22;59616;52.170;5.386;2022-07-22T14:32:24;25.00;46.50
70801;DHT22;59616;52.170;5.386;2022-07-22T14:34:50;25.00;46.10
70801;DHT22;59616;52.170;5.386;2022-07-22T14:37:17;24.90;46.00
70801;DHT22;59616;52.170;5.386;2022-07-22T14:39:52;24.80;45.90
70801;DHT22;59616;52.170;5.386;2022-07-22T14:42:19;24.60;46.00
70801;DHT22;59616;52.170;5.386;2022-07-22T14:44:46;24.50;46.40
70801;DHT22;59616;52.170;5.386;2022-07-22T14:47:12;24.30;47.00
70801;DHT22;59616;52.170;5.386;2022-07-22T14:49:39;24.30;47.00
70801;DHT22;59616;52.170;5.386;2022-07-22T14:52:06;24.30;47.10
70801;DHT22;59616;52.170;5.386;2022-07-22T14:54:32;24.30;47.20
70801;DHT22;59616;52.170;5.386;2022-07-22T14:56:59;24.40;47.00
70801;DHT22;59616;52.170;5.386;2022-07-22T14:59:26;24.40;47.70
70801;DHT22;59616;52.170;5.386;2022-07-22T15:01:53;24.50;47.50
70801;DHT22;59616;52.170;5.386;2022-07-22T15:04:20;24.50;47.50
70801;DHT22;59616;52.170;5.386;2022-07-22T15:06:47;24.60;47.40
70801;DHT22;59616;52.170;5.386;2022-07-22T15:09:14;24.60;47.20
70801;DHT22;59616;52.170;5.386;2022-07-22T15:11:40;24.50;47.00
70801;DHT22;59616;52.170;5.386;2022-07-22T15:14:07;24.50;48.60
70801;DHT22;59616;52.170;5.386;2022-07-22T15:16:34;24.40;47.50
70801;DHT22;59616;52.170;5.386;2022-07-22T15:19:01;24.40;47.80
70801;DHT22;59616;52.170;5.386;2022-07-22T15:21:27;24.30;47.70
70801;DHT22;59616;52.170;5.386;2022-07-22T15:23:57;24.20;48.00
70801;DHT22;59616;52.170;5.386;2022-07-22T15:26:25;24.20;48.00
70801;DHT22;59616;52.170;5.386;2022-07-22T15:28:53;24.20;47.40
70801;DHT22;59616;52.170;5.386;2022-07-22T15:31:20;24.30;47.90
70801;DHT22;59616;52.170;5.386;2022-07-22T15:33:47;24.40;47.60
70801;DHT22;59616;52.170;5.386;2022-07-22T15:36:16;24.50;47.40
70801;DHT22;59616;52.170;5.386;2022-07-22T15:38:43;24.60;47.20
70801;DHT22;59616;52.170;5.386;2022-07-22T15:41:10;24.50;46.70
70801;DHT22;59616;52.170;5.386;2022-07-22T15:43:38;24.30;47.10
70801;DHT22;59616;52.170;5.386;2022-07-22T15:46:09;24.30;47.40
70801;DHT22;59616;52.170;5.386;2022-07-22T15:48:37;24.40;47.80
70801;DHT22;59616;52.170;5.386;2022-07-22T15:51:07;24.60;47.60
70801;DHT22;59616;52.170;5.386;2022-07-22T15:53:34;24.70;47.10
70801;DHT22;59616;52.170;5.386;2022-07-22T15:56:01;24.60;47.00
70801;DHT22;59616;52.170;5.386;2022-07-22T15:58:28;24.50;46.90
70801;DHT22;59616;52.170;5.386;2022-07-22T16:01:33;24.30;48.30
70801;DHT22;59616;52.170;5.386;2022-07-22T16:04:00;24.10;47.80
70801;DHT22;59616;52.170;5.386;2022-07-22T16:06:27;24.00;48.10
70801;DHT22;59616;52.170;5.386;2022-07-22T16:08:55;24.00;48.20
70801;DHT22;59616;52.170;5.386;2022-07-22T16:11:23;23.90;48.00